createdAt,value
2017-10-20T00:01:15.385Z,12.69
2017-10-20T00:03:43.099Z,12.69
2017-10-20T00:06:10.752Z,12.65
2017-10-20T00:08:38.513Z,12.61
2017-10-20T00:11:06.163Z,12.62
2017-10-20T00:13:33.812Z,12.63
2017-10-20T00:16:01.486Z,12.62
2017-10-20T00:18:29.082Z,12.61
2017-10-20T00:20:56.772Z,12.61
2017-10-20T00:23:24.419Z,12.63
2017-10-20T00:25:52.041Z,12.64
2017-10-20T00:28:19.625Z,12.64
2017-10-20T00:30:47.312Z,12.62
2017-10-20T00:33:14.954Z,12.60
2017-10-20T00:35:42.622Z,12.59
2017-10-20T00:38:10.297Z,12.58
2017-10-20T00:40:37.994Z,12.56
2017-10-20T00:43:05.635Z,12.54
2017-10-20T00:45:33.361Z,12.58
2017-10-20T00:48:01.006Z,12.59
2017-10-20T00:50:28.692Z,12.59
2017-10-20T00:52:56.334Z,12.52
2017-10-20T00:55:24.060Z,12.49
2017-10-20T00:57:51.713Z,12.49
2017-10-20T01:00:19.432Z,12.49
2017-10-20T01:02:47.092Z,12.46
2017-10-20T01:05:14.752Z,12.47
2017-10-20T01:07:42.452Z,12.46
2017-10-20T01:10:10.119Z,12.45
2017-10-20T01:12:37.825Z,12.46
2017-10-20T01:15:05.483Z,12.47
2017-10-20T01:17:33.211Z,12.47
2017-10-20T01:20:00.923Z,12.44
2017-10-20T01:22:28.638Z,12.44
2017-10-20T01:24:56.269Z,12.45
2017-10-20T01:27:24.033Z,12.46
2017-10-20T01:29:51.684Z,12.47
2017-10-20T01:32:19.363Z,12.46
2017-10-20T01:34:47.005Z,12.44
2017-10-20T01:37:14.721Z,12.43
2017-10-20T01:39:42.363Z,12.43
2017-10-20T01:42:10.081Z,12.42
2017-10-20T01:44:37.729Z,12.42
2017-10-20T01:47:05.385Z,12.42
2017-10-20T01:49:33.078Z,12.41
2017-10-20T01:52:00.747Z,12.41
2017-10-20T01:54:28.449Z,12.42
2017-10-20T01:56:56.107Z,12.41
2017-10-20T01:59:23.791Z,12.36
2017-10-20T02:01:51.446Z,12.33
2017-10-20T02:04:19.145Z,12.25
2017-10-20T02:06:46.802Z,12.22
2017-10-20T02:09:14.484Z,12.20
2017-10-20T02:11:42.149Z,12.21
2017-10-20T02:14:09.834Z,12.21
2017-10-20T02:16:37.488Z,12.23
2017-10-20T02:19:05.170Z,12.19
2017-10-20T02:21:32.815Z,12.18
2017-10-20T02:24:00.484Z,12.17
2017-10-20T02:26:28.142Z,12.15
2017-10-20T02:28:55.810Z,12.13
2017-10-20T02:31:23.495Z,12.09
2017-10-20T02:33:51.156Z,12.03
2017-10-20T02:36:18.863Z,12.06
2017-10-20T02:38:46.565Z,12.04
2017-10-20T02:41:14.269Z,12.03
2017-10-20T02:43:41.871Z,12.02
2017-10-20T02:46:09.640Z,12.03
2017-10-20T02:48:37.307Z,12.03
2017-10-20T02:51:05.037Z,12.03
2017-10-20T02:53:32.701Z,12.04
2017-10-20T02:56:00.383Z,12.05
2017-10-20T02:58:28.046Z,12.00
2017-10-20T03:00:55.734Z,11.98
2017-10-20T03:03:23.385Z,11.94
2017-10-20T03:05:51.102Z,11.95
2017-10-20T03:08:18.762Z,11.94
2017-10-20T03:10:46.409Z,11.97
2017-10-20T03:13:14.102Z,11.99
2017-10-20T03:15:41.760Z,11.99
2017-10-20T03:18:09.442Z,11.98
2017-10-20T03:20:37.108Z,11.99
2017-10-20T03:23:04.790Z,11.97
2017-10-20T03:25:32.438Z,11.96
2017-10-20T03:28:00.137Z,11.94
2017-10-20T03:30:27.739Z,11.90
2017-10-20T03:32:55.434Z,11.93
2017-10-20T03:35:23.103Z,11.89
2017-10-20T03:37:50.842Z,11.88
2017-10-20T03:40:18.494Z,11.84
2017-10-20T03:42:46.189Z,11.88
2017-10-20T03:45:13.799Z,11.85
2017-10-20T03:47:41.466Z,11.87
2017-10-20T03:50:09.159Z,11.88
2017-10-20T03:52:36.818Z,11.88
2017-10-20T03:55:04.460Z,11.87
2017-10-20T03:57:32.118Z,11.86
2017-10-20T03:59:59.802Z,11.83
2017-10-20T04:02:27.466Z,11.79
2017-10-20T04:04:55.174Z,11.78
2017-10-20T04:07:22.865Z,11.77
2017-10-20T04:09:50.582Z,11.75
2017-10-20T04:12:18.287Z,11.76
2017-10-20T04:14:45.993Z,11.74
2017-10-20T04:17:13.674Z,11.74
2017-10-20T04:19:41.313Z,11.75
2017-10-20T04:22:08.986Z,11.71
2017-10-20T04:24:36.637Z,11.74
2017-10-20T04:27:04.367Z,11.72
2017-10-20T04:29:32.061Z,11.73
2017-10-20T04:31:59.786Z,11.73
2017-10-20T04:34:27.466Z,11.71
2017-10-20T04:36:55.184Z,11.69
2017-10-20T04:39:22.842Z,11.69
2017-10-20T04:41:50.542Z,11.70
2017-10-20T04:44:18.216Z,11.67
2017-10-20T04:46:45.900Z,11.67
2017-10-20T04:49:13.569Z,11.65
2017-10-20T04:51:42.121Z,11.66
2017-10-20T04:54:09.779Z,11.65
2017-10-20T04:56:37.478Z,11.60
2017-10-20T04:59:05.134Z,11.58
2017-10-20T05:01:32.824Z,11.54
2017-10-20T05:04:00.502Z,11.52
2017-10-20T05:06:28.261Z,11.53
2017-10-20T05:08:55.918Z,11.54
2017-10-20T05:11:23.587Z,11.54
2017-10-20T05:13:51.310Z,11.48
2017-10-20T05:16:18.917Z,11.41
2017-10-20T05:18:46.542Z,11.38
2017-10-20T05:21:14.122Z,11.33
2017-10-20T05:23:41.782Z,11.31
2017-10-20T05:26:09.375Z,11.31
2017-10-20T05:28:36.994Z,11.29
2017-10-20T05:31:04.595Z,11.30
2017-10-20T05:33:32.222Z,11.30
2017-10-20T05:35:59.822Z,11.31
2017-10-20T05:38:27.461Z,11.32
2017-10-20T05:40:55.109Z,11.32
2017-10-20T05:43:22.748Z,11.35
2017-10-20T05:45:50.360Z,11.35
2017-10-20T05:48:17.989Z,11.34
2017-10-20T05:50:45.617Z,11.32
2017-10-20T05:53:13.277Z,11.29
2017-10-20T05:55:40.858Z,11.30
2017-10-20T05:58:08.499Z,11.29
2017-10-20T06:00:36.097Z,11.32
2017-10-20T06:03:03.739Z,11.35
2017-10-20T06:05:31.342Z,11.38
2017-10-20T06:07:58.949Z,11.38
2017-10-20T06:10:26.586Z,11.43
2017-10-20T06:12:54.183Z,11.44
2017-10-20T06:15:21.814Z,11.42
2017-10-20T06:17:49.419Z,11.42
2017-10-20T06:20:17.070Z,11.41
2017-10-20T06:22:44.661Z,11.38
2017-10-20T06:25:12.299Z,11.37
2017-10-20T06:27:39.903Z,11.34
2017-10-20T06:30:07.543Z,11.33
2017-10-20T06:32:35.194Z,11.32
2017-10-20T06:35:02.840Z,11.36
2017-10-20T06:37:30.449Z,11.35
2017-10-20T06:39:58.078Z,11.34
2017-10-20T06:42:25.670Z,11.36
2017-10-20T06:44:53.310Z,11.36
2017-10-20T06:47:20.910Z,11.39
2017-10-20T06:49:48.544Z,11.42
2017-10-20T06:52:16.338Z,11.45
2017-10-20T06:54:44.030Z,11.46
2017-10-20T06:57:11.641Z,11.56
2017-10-20T06:59:39.263Z,11.53
2017-10-20T07:02:06.935Z,11.49
2017-10-20T07:04:34.543Z,11.54
2017-10-20T07:07:02.175Z,11.56
2017-10-20T07:09:29.777Z,11.54
2017-10-20T07:11:57.512Z,11.52
2017-10-20T07:14:25.113Z,11.53
2017-10-20T07:16:52.748Z,11.56
2017-10-20T07:19:25.941Z,11.68
2017-10-20T07:21:53.579Z,11.72
2017-10-20T07:24:21.186Z,11.77
2017-10-20T07:26:48.811Z,11.81
2017-10-20T07:29:16.406Z,11.85
2017-10-20T07:31:44.066Z,11.85
2017-10-20T07:34:11.703Z,11.82
2017-10-20T07:36:39.309Z,11.85
2017-10-20T07:39:06.954Z,11.89
2017-10-20T07:41:34.602Z,11.93
2017-10-20T07:44:02.221Z,11.99
2017-10-20T07:46:29.815Z,12.03
2017-10-20T07:48:57.435Z,12.04
2017-10-20T07:51:25.024Z,12.11
2017-10-20T07:53:52.874Z,12.16
2017-10-20T07:56:20.500Z,12.18
2017-10-20T07:58:48.131Z,12.26
2017-10-20T08:01:15.726Z,12.31
2017-10-20T08:03:43.370Z,12.32
2017-10-20T08:06:10.957Z,12.41
2017-10-20T08:08:38.591Z,12.50
2017-10-20T08:11:06.179Z,12.57
2017-10-20T08:13:33.798Z,12.51
2017-10-20T08:16:01.383Z,12.61
2017-10-20T08:18:28.977Z,12.66
2017-10-20T08:20:56.600Z,12.72
2017-10-20T08:23:24.205Z,12.79
2017-10-20T08:25:51.826Z,12.87
2017-10-20T08:28:19.440Z,12.90
2017-10-20T08:30:47.060Z,12.83
2017-10-20T08:33:14.642Z,12.83
2017-10-20T08:35:42.279Z,12.77
2017-10-20T08:38:09.893Z,12.83
2017-10-20T08:40:37.528Z,12.86
2017-10-20T08:43:05.119Z,12.94
2017-10-20T08:45:32.747Z,13.04
2017-10-20T08:48:00.344Z,13.14
2017-10-20T08:50:27.956Z,13.20
2017-10-20T08:52:55.535Z,13.31
2017-10-20T08:55:23.173Z,13.38
2017-10-20T08:57:50.770Z,13.41
2017-10-20T09:00:18.442Z,13.51
2017-10-20T09:02:46.056Z,13.58
2017-10-20T09:05:13.688Z,13.68
2017-10-20T09:07:41.270Z,13.75
2017-10-20T09:10:08.865Z,13.80
2017-10-20T09:12:36.494Z,13.86
2017-10-20T09:15:04.094Z,13.92
2017-10-20T09:17:31.732Z,13.97
2017-10-20T09:19:59.405Z,13.88
2017-10-20T09:22:27.048Z,13.91
2017-10-20T09:24:54.706Z,13.89
2017-10-20T09:27:22.414Z,13.93
2017-10-20T09:29:50.073Z,13.99
2017-10-20T09:32:17.795Z,14.06
2017-10-20T09:34:45.450Z,13.98
2017-10-20T09:37:13.258Z,13.98
2017-10-20T09:39:40.935Z,13.98
2017-10-20T09:42:08.561Z,14.04
2017-10-20T09:44:36.186Z,14.10
2017-10-20T09:47:03.810Z,14.16
2017-10-20T09:49:31.434Z,14.21
2017-10-20T09:51:59.066Z,14.18
2017-10-20T09:54:26.658Z,14.22
2017-10-20T09:56:54.296Z,14.22
2017-10-20T09:59:21.933Z,14.28
2017-10-20T10:01:49.659Z,14.31
2017-10-20T10:04:17.254Z,14.31
2017-10-20T10:06:44.849Z,14.30
2017-10-20T10:09:12.473Z,14.36
2017-10-20T10:11:40.066Z,14.38
2017-10-20T10:14:07.704Z,14.48
2017-10-20T10:16:35.290Z,14.53
2017-10-20T10:19:02.912Z,14.60
2017-10-20T10:21:30.518Z,14.68
2017-10-20T10:23:58.138Z,14.75
2017-10-20T10:26:25.718Z,14.87
2017-10-20T10:28:53.358Z,14.93
2017-10-20T10:31:20.952Z,15.01
2017-10-20T10:33:48.594Z,15.20
2017-10-20T10:36:16.211Z,15.35
2017-10-20T10:38:43.861Z,15.37
2017-10-20T10:41:11.449Z,15.33
2017-10-20T10:43:39.079Z,15.34
2017-10-20T10:46:06.686Z,15.47
2017-10-20T10:48:34.285Z,15.37
2017-10-20T10:51:01.997Z,15.21
2017-10-20T10:53:29.588Z,15.04
2017-10-20T10:55:57.241Z,14.92
2017-10-20T10:58:24.835Z,14.90
2017-10-20T11:00:52.474Z,14.91
2017-10-20T11:03:20.086Z,14.88
2017-10-20T11:05:59.398Z,14.87
2017-10-20T11:08:38.755Z,14.88
2017-10-20T11:11:18.130Z,14.90
2017-10-20T11:13:45.754Z,14.93
2017-10-20T11:16:13.391Z,14.96
2017-10-20T11:18:40.993Z,14.99
2017-10-20T11:21:08.632Z,15.01
2017-10-20T11:23:36.223Z,14.99
2017-10-20T11:26:03.879Z,14.96
2017-10-20T11:28:31.493Z,14.90
2017-10-20T11:30:59.123Z,14.85
2017-10-20T11:33:26.706Z,14.81
2017-10-20T11:35:54.333Z,14.76
2017-10-20T11:38:21.939Z,14.66
2017-10-20T11:40:49.573Z,14.65
2017-10-20T11:43:17.173Z,14.63
2017-10-20T11:45:44.771Z,14.58
2017-10-20T11:48:12.397Z,14.61
2017-10-20T11:50:40.004Z,14.62
2017-10-20T11:53:07.636Z,14.64
2017-10-20T11:55:35.222Z,14.64
2017-10-20T11:58:02.875Z,14.67
2017-10-20T12:00:30.486Z,14.65
2017-10-20T12:02:58.124Z,14.69
2017-10-20T12:05:25.709Z,14.70
2017-10-20T12:07:53.333Z,14.66
2017-10-20T12:10:20.933Z,14.63
2017-10-20T12:12:48.551Z,14.62
2017-10-20T12:15:16.144Z,14.59
2017-10-20T12:17:43.774Z,14.51
2017-10-20T12:20:11.372Z,14.45
2017-10-20T12:22:39.006Z,14.40
2017-10-20T12:25:06.663Z,14.38
2017-10-20T12:27:34.275Z,14.33
2017-10-20T12:30:01.894Z,14.33
2017-10-20T12:32:29.498Z,14.34
2017-10-20T12:34:57.141Z,14.38
2017-10-20T12:37:31.595Z,14.38
2017-10-20T12:39:59.238Z,14.39
2017-10-20T12:42:26.861Z,14.43
2017-10-20T12:44:54.475Z,14.41
2017-10-20T12:47:22.143Z,14.42
2017-10-20T12:49:49.858Z,14.39
2017-10-20T12:52:17.571Z,14.37
2017-10-20T12:54:45.316Z,14.37
2017-10-20T12:57:13.006Z,14.35
2017-10-20T12:59:40.642Z,14.34
2017-10-20T13:02:08.263Z,14.34
2017-10-20T13:04:35.994Z,14.32
2017-10-20T13:07:03.651Z,14.33
2017-10-20T13:09:31.295Z,14.32
2017-10-20T13:11:58.904Z,14.36
2017-10-20T13:14:26.597Z,14.35
2017-10-20T13:16:54.250Z,14.30
2017-10-20T13:19:21.960Z,14.29
2017-10-20T13:21:49.684Z,14.33
2017-10-20T13:24:17.290Z,14.34
2017-10-20T13:26:45.015Z,14.34
2017-10-20T13:29:12.613Z,14.36
2017-10-20T13:31:40.247Z,14.42
2017-10-20T13:34:07.920Z,14.51
2017-10-20T13:36:35.625Z,14.62
2017-10-20T13:39:03.383Z,14.67
2017-10-20T13:41:31.071Z,14.60
2017-10-20T13:43:58.655Z,14.62
2017-10-20T13:46:26.271Z,14.58
2017-10-20T13:48:53.922Z,14.52
2017-10-20T13:51:22.625Z,14.48
2017-10-20T13:53:50.275Z,14.44
2017-10-20T13:56:17.931Z,14.36
2017-10-20T13:58:45.661Z,14.26
2017-10-20T14:01:13.367Z,14.18
2017-10-20T14:03:41.109Z,14.16
2017-10-20T14:06:08.802Z,14.17
2017-10-20T14:08:36.498Z,14.21
2017-10-20T14:11:04.152Z,14.18
2017-10-20T14:13:31.848Z,14.18
2017-10-20T14:15:59.535Z,14.12
2017-10-20T14:18:27.231Z,14.12
2017-10-20T14:20:54.899Z,14.10
2017-10-20T14:23:22.598Z,14.16
2017-10-20T14:25:50.263Z,14.15
2017-10-20T14:28:17.974Z,14.17
2017-10-20T14:30:45.646Z,14.18
2017-10-20T14:33:13.359Z,14.17
2017-10-20T14:35:41.022Z,14.13
2017-10-20T14:38:08.797Z,14.11
2017-10-20T14:40:36.467Z,14.09
2017-10-20T14:43:04.122Z,14.03
2017-10-20T14:45:31.856Z,13.92
2017-10-20T14:47:59.481Z,13.92
2017-10-20T14:50:27.185Z,13.88
2017-10-20T14:52:54.845Z,13.83
2017-10-20T14:55:22.550Z,13.77
2017-10-20T14:57:50.161Z,13.71
2017-10-20T15:00:17.847Z,13.69
2017-10-20T15:02:45.520Z,13.64
2017-10-20T15:05:13.230Z,13.63
2017-10-20T15:07:40.891Z,13.61
2017-10-20T15:10:08.528Z,13.60
2017-10-20T15:12:36.177Z,13.59
2017-10-20T15:15:03.889Z,13.57
2017-10-20T15:17:31.545Z,13.57
2017-10-20T15:19:59.236Z,13.56
2017-10-20T15:22:26.885Z,13.55
2017-10-20T15:24:54.570Z,13.55
2017-10-20T15:27:22.175Z,13.54
2017-10-20T15:29:49.822Z,13.55
2017-10-20T15:32:17.514Z,13.56
2017-10-20T15:34:45.161Z,13.56
2017-10-20T15:37:12.911Z,13.56
2017-10-20T15:39:40.590Z,13.55
2017-10-20T15:42:08.277Z,13.53
2017-10-20T15:44:35.939Z,13.54
2017-10-20T15:47:03.641Z,13.53
2017-10-20T15:49:31.339Z,13.52
2017-10-20T15:51:59.079Z,13.51
2017-10-20T15:54:26.757Z,13.51
2017-10-20T15:56:54.482Z,13.49
2017-10-20T15:59:22.115Z,13.48
2017-10-20T16:01:49.743Z,13.46
2017-10-20T16:04:17.334Z,13.44
2017-10-20T16:06:45.010Z,13.44
2017-10-20T16:09:12.614Z,13.43
2017-10-20T16:11:40.286Z,13.41
2017-10-20T16:14:07.904Z,13.41
2017-10-20T16:16:35.503Z,13.39
2017-10-20T16:19:03.152Z,13.36
2017-10-20T16:21:30.743Z,13.35
2017-10-20T16:23:58.374Z,13.36
2017-10-20T16:26:25.966Z,13.36
2017-10-20T16:28:53.596Z,13.36
2017-10-20T16:31:21.178Z,13.35
2017-10-20T16:33:48.806Z,13.34
2017-10-20T16:36:16.453Z,13.32
2017-10-20T16:38:44.132Z,13.31
2017-10-20T16:41:11.765Z,13.28
2017-10-20T16:43:39.418Z,13.26
2017-10-20T16:46:07.055Z,13.25
2017-10-20T16:48:34.688Z,13.25
2017-10-20T16:51:02.325Z,13.27
2017-10-20T16:53:29.960Z,13.33
2017-10-20T16:55:57.617Z,13.32
2017-10-20T16:58:25.274Z,13.32
2017-10-20T17:00:52.915Z,13.28
2017-10-20T17:03:20.598Z,13.24
2017-10-20T17:05:48.239Z,13.17
2017-10-20T17:08:15.898Z,13.09
2017-10-20T17:10:43.610Z,12.93
2017-10-20T17:13:11.284Z,12.75
2017-10-20T17:15:38.996Z,12.62
2017-10-20T17:18:06.647Z,12.52
2017-10-20T17:20:34.335Z,12.41
2017-10-20T17:23:01.931Z,12.32
2017-10-20T17:25:29.617Z,12.24
2017-10-20T17:27:57.282Z,12.10
2017-10-20T17:30:24.974Z,11.96
2017-10-20T17:32:52.552Z,11.89
2017-10-20T17:35:20.189Z,11.81
2017-10-20T17:37:47.881Z,11.64
2017-10-20T17:40:15.573Z,11.59
2017-10-20T17:42:43.183Z,11.62
2017-10-20T17:45:10.884Z,11.62
2017-10-20T17:47:38.534Z,11.59
2017-10-20T17:50:06.295Z,11.53
2017-10-20T17:52:33.987Z,11.51
2017-10-20T17:55:01.653Z,11.52
2017-10-20T17:57:29.341Z,11.53
2017-10-20T17:59:56.967Z,11.51
2017-10-20T18:02:24.601Z,11.47
2017-10-20T18:04:52.198Z,11.41
2017-10-20T18:07:19.817Z,11.37
2017-10-20T18:09:47.438Z,11.29
2017-10-20T18:12:15.092Z,11.22
2017-10-20T18:14:42.696Z,11.17
2017-10-20T18:17:10.325Z,11.14
2017-10-20T18:19:37.913Z,11.12
2017-10-20T18:22:05.509Z,11.06
2017-10-20T18:24:33.159Z,11.03
2017-10-20T18:27:00.751Z,10.98
2017-10-20T18:29:28.397Z,10.95
2017-10-20T18:31:55.990Z,10.88
2017-10-20T18:34:23.637Z,10.77
2017-10-20T18:36:51.235Z,10.67
2017-10-20T18:39:18.874Z,10.66
2017-10-20T18:41:46.462Z,10.63
2017-10-20T18:44:14.089Z,10.62
2017-10-20T18:46:41.693Z,10.59
2017-10-20T18:49:09.341Z,10.55
2017-10-20T18:51:36.937Z,10.49
2017-10-20T18:54:04.577Z,10.46
2017-10-20T18:56:32.203Z,10.44
2017-10-20T18:58:59.853Z,10.45
2017-10-20T19:01:27.465Z,10.46
2017-10-20T19:03:55.107Z,10.50
2017-10-20T19:06:22.801Z,10.52
2017-10-20T19:08:50.407Z,10.54
2017-10-20T19:11:18.030Z,10.56
2017-10-20T19:13:45.627Z,10.60
2017-10-20T19:16:13.274Z,10.63
2017-10-20T19:18:40.863Z,10.63
2017-10-20T19:21:08.492Z,10.63
2017-10-20T19:23:36.098Z,10.66
2017-10-20T19:26:03.741Z,10.65
2017-10-20T19:28:31.394Z,10.61
2017-10-20T19:30:59.090Z,10.49
2017-10-20T19:33:26.766Z,10.40
2017-10-20T19:35:54.481Z,10.35
2017-10-20T19:38:22.074Z,10.34
2017-10-20T19:40:49.753Z,10.33
2017-10-20T19:43:17.354Z,10.30
2017-10-20T19:45:45.001Z,10.29
2017-10-20T19:48:12.924Z,10.28
2017-10-20T19:50:40.528Z,10.29
2017-10-20T19:53:08.239Z,10.29
2017-10-20T19:55:35.836Z,10.28
2017-10-20T19:58:03.467Z,10.27
2017-10-20T20:00:31.106Z,10.30
2017-10-20T20:02:58.829Z,10.31
2017-10-20T20:05:26.487Z,10.34
2017-10-20T20:07:54.117Z,10.32
2017-10-20T20:10:21.749Z,10.27
2017-10-20T20:12:49.384Z,10.26
2017-10-20T20:15:17.031Z,10.26
2017-10-20T20:17:44.685Z,10.29
2017-10-20T20:20:12.316Z,10.39
2017-10-20T20:22:39.958Z,10.53
2017-10-20T20:25:07.622Z,10.69
2017-10-20T20:27:35.527Z,10.81
2017-10-20T20:30:03.227Z,10.91
2017-10-20T20:32:31.264Z,10.98
2017-10-20T20:34:58.874Z,11.05
2017-10-20T20:37:26.497Z,11.10
2017-10-20T20:39:54.136Z,11.15
2017-10-20T20:42:21.743Z,11.20
2017-10-20T20:44:49.375Z,11.23
2017-10-20T20:47:16.963Z,11.26
2017-10-20T20:49:44.607Z,11.25
2017-10-20T20:52:12.273Z,11.23
2017-10-20T20:54:39.984Z,11.18
2017-10-20T20:57:07.661Z,11.16
2017-10-20T20:59:35.364Z,11.09
2017-10-20T21:02:03.013Z,11.06
2017-10-20T21:04:30.717Z,11.05
2017-10-20T21:06:58.393Z,11.04
2017-10-20T21:09:26.087Z,11.05
2017-10-20T21:11:53.753Z,11.07
2017-10-20T21:14:21.405Z,11.09
2017-10-20T21:16:49.116Z,11.12
2017-10-20T21:19:16.787Z,11.13
2017-10-20T21:21:44.482Z,11.18
2017-10-20T21:24:12.075Z,11.21
2017-10-20T21:26:39.773Z,11.25
2017-10-20T21:29:07.441Z,11.28
2017-10-20T21:31:36.143Z,11.27
2017-10-20T21:34:03.794Z,11.26
2017-10-20T21:36:31.487Z,11.23
2017-10-20T21:38:59.193Z,11.22
2017-10-20T21:41:26.891Z,11.20
2017-10-20T21:43:54.551Z,11.19
2017-10-20T21:46:22.255Z,11.17
2017-10-20T21:48:49.926Z,11.14
2017-10-20T21:51:17.636Z,11.12
2017-10-20T21:53:45.295Z,11.12
2017-10-20T21:56:12.978Z,11.11
2017-10-20T21:58:40.618Z,11.17
2017-10-20T22:01:08.331Z,11.22
2017-10-20T22:03:35.967Z,11.27
2017-10-20T22:06:03.617Z,11.30
2017-10-20T22:08:31.310Z,11.35
2017-10-20T22:10:58.961Z,11.36
2017-10-20T22:13:26.664Z,11.39
2017-10-20T22:15:54.302Z,11.41
2017-10-20T22:18:21.938Z,11.44
2017-10-20T22:20:49.593Z,11.47
2017-10-20T22:23:17.276Z,11.48
2017-10-20T22:25:44.940Z,11.50
2017-10-20T22:28:12.629Z,11.52
2017-10-20T22:30:40.271Z,11.52
2017-10-20T22:33:07.966Z,11.53
2017-10-20T22:35:35.558Z,11.55
2017-10-20T22:38:03.277Z,11.57
2017-10-20T22:40:30.923Z,11.59
2017-10-20T22:42:58.598Z,11.61
2017-10-20T22:45:26.256Z,11.64
2017-10-20T22:47:53.941Z,11.66
2017-10-20T22:50:21.590Z,11.69
2017-10-20T22:52:49.175Z,11.71
2017-10-20T22:55:16.806Z,11.71
2017-10-20T22:57:44.460Z,11.68
2017-10-20T23:00:12.163Z,11.66
2017-10-20T23:02:39.825Z,11.65
2017-10-20T23:05:07.465Z,11.63
2017-10-20T23:07:35.111Z,11.61
2017-10-20T23:10:02.816Z,11.60
2017-10-20T23:12:30.475Z,11.58
2017-10-20T23:14:58.163Z,11.56
2017-10-20T23:17:25.838Z,11.54
2017-10-20T23:19:53.551Z,11.54
2017-10-20T23:22:21.190Z,11.55
2017-10-20T23:24:49.784Z,11.56
2017-10-20T23:27:17.417Z,11.56
2017-10-20T23:29:45.058Z,11.57
2017-10-20T23:32:12.758Z,11.58
2017-10-20T23:34:40.411Z,11.59
2017-10-20T23:37:08.134Z,11.58
2017-10-20T23:39:35.782Z,11.56
2017-10-20T23:42:03.462Z,11.55
2017-10-20T23:44:31.134Z,11.55
2017-10-20T23:46:58.823Z,11.55
2017-10-20T23:49:26.464Z,11.55
2017-10-20T23:51:54.139Z,11.56
2017-10-20T23:54:21.758Z,11.55
2017-10-20T23:56:49.442Z,11.57
2017-10-20T23:59:17.092Z,11.57
